sensor_id;sensor_type;location;lat;lon;timestamp;P1;durP1;ratioP1;P2;durP2;ratioP2
26774;SDS011;14362;51.902;7.626;2024-01-06T00:03:58;10.27;;;7.45;;
26774;SDS011;14362;51.902;7.626;2024-01-06T00:07:59;12.60;;;7.20;;
26774;SDS011;14362;51.902;7.626;2024-01-06T00:12:01;13.68;;;8.18;;
26774;SDS011;14362;51.902;7.626;2024-01-06T00:16:04;11.40;;;7.85;;
26774;SDS011;14362;51.902;7.626;2024-01-06T00:20:06;13.27;;;8.32;;
26774;SDS011;14362;51.902;7.626;2024-01-06T00:24:08;14.10;;;9.38;;
26774;SDS011;14362;51.902;7.626;2024-01-06T00:28:10;12.65;;;8.57;;
26774;SDS011;14362;51.902;7.626;2024-01-06T00:32:12;15.18;;;9.82;;
26774;SDS011;14362;51.902;7.626;2024-01-06T00:36:14;14.57;;;9.68;;
26774;SDS011;14362;51.902;7.626;2024-01-06T00:40:15;16.45;;;10.48;;
26774;SDS011;14362;51.902;7.626;2024-01-06T00:44:18;14.68;;;8.90;;
26774;SDS011;14362;51.902;7.626;2024-01-06T00:48:21;15.05;;;10.38;;
26774;SDS011;14362;51.902;7.626;2024-01-06T00:52:23;16.05;;;10.02;;
26774;SDS011;14362;51.902;7.626;2024-01-06T00:56:24;16.20;;;9.98;;
26774;SDS011;14362;51.902;7.626;2024-01-06T01:00:27;17.58;;;10.48;;
26774;SDS011;14362;51.902;7.626;2024-01-06T01:04:29;15.85;;;9.30;;
26774;SDS011;14362;51.902;7.626;2024-01-06T01:08:31;16.30;;;9.77;;
26774;SDS011;14362;51.902;7.626;2024-01-06T01:12:32;14.57;;;9.77;;
26774;SDS011;14362;51.902;7.626;2024-01-06T01:16:34;16.70;;;10.27;;
26774;SDS011;14362;51.902;7.626;2024-01-06T01:20:36;15.00;;;9.77;;
26774;SDS011;14362;51.902;7.626;2024-01-06T01:24:38;15.77;;;10.30;;
26774;SDS011;14362;51.902;7.626;2024-01-06T01:28:40;16.88;;;10.70;;
26774;SDS011;14362;51.902;7.626;2024-01-06T01:32:41;16.02;;;10.75;;
26774;SDS011;14362;51.902;7.626;2024-01-06T01:36:44;17.90;;;10.55;;
26774;SDS011;14362;51.902;7.626;2024-01-06T01:40:45;17.17;;;11.10;;
26774;SDS011;14362;51.902;7.626;2024-01-06T01:44:47;14.88;;;10.27;;
26774;SDS011;14362;51.902;7.626;2024-01-06T01:48:48;17.25;;;10.73;;
26774;SDS011;14362;51.902;7.626;2024-01-06T01:52:51;20.67;;;11.25;;
26774;SDS011;14362;51.902;7.626;2024-01-06T01:56:52;15.95;;;9.85;;
26774;SDS011;14362;51.902;7.626;2024-01-06T02:00:54;15.10;;;9.27;;
26774;SDS011;14362;51.902;7.626;2024-01-06T02:04:56;14.73;;;9.27;;
26774;SDS011;14362;51.902;7.626;2024-01-06T02:08:59;15.20;;;8.60;;
26774;SDS011;14362;51.902;7.626;2024-01-06T02:13:07;15.98;;;8.95;;
26774;SDS011;14362;51.902;7.626;2024-01-06T02:17:09;15.02;;;9.20;;
26774;SDS011;14362;51.902;7.626;2024-01-06T02:21:10;16.63;;;9.13;;
26774;SDS011;14362;51.902;7.626;2024-01-06T02:25:13;17.52;;;9.50;;
26774;SDS011;14362;51.902;7.626;2024-01-06T02:29:14;17.60;;;9.75;;
26774;SDS011;14362;51.902;7.626;2024-01-06T02:33:16;17.60;;;9.38;;
26774;SDS011;14362;51.902;7.626;2024-01-06T02:37:19;14.38;;;8.93;;
26774;SDS011;14362;51.902;7.626;2024-01-06T02:41:22;14.55;;;9.15;;
26774;SDS011;14362;51.902;7.626;2024-01-06T02:45:23;16.17;;;8.93;;
26774;SDS011;14362;51.902;7.626;2024-01-06T02:49:24;16.67;;;8.18;;
26774;SDS011;14362;51.902;7.626;2024-01-06T02:53:26;18.23;;;9.35;;
26774;SDS011;14362;51.902;7.626;2024-01-06T02:57:29;15.18;;;8.73;;
26774;SDS011;14362;51.902;7.626;2024-01-06T03:01:31;16.98;;;9.32;;
26774;SDS011;14362;51.902;7.626;2024-01-06T03:05:32;20.27;;;10.40;;
26774;SDS011;14362;51.902;7.626;2024-01-06T03:09:34;15.73;;;8.93;;
26774;SDS011;14362;51.902;7.626;2024-01-06T03:13:37;16.17;;;9.07;;
26774;SDS011;14362;51.902;7.626;2024-01-06T03:17:38;20.95;;;10.18;;
26774;SDS011;14362;51.902;7.626;2024-01-06T03:21:39;21.90;;;10.88;;
26774;SDS011;14362;51.902;7.626;2024-01-06T03:25:41;22.52;;;10.82;;
26774;SDS011;14362;51.902;7.626;2024-01-06T03:29:44;20.48;;;10.98;;
26774;SDS011;14362;51.902;7.626;2024-01-06T03:33:45;19.90;;;9.65;;
26774;SDS011;14362;51.902;7.626;2024-01-06T03:37:46;19.80;;;10.52;;
26774;SDS011;14362;51.902;7.626;2024-01-06T03:41:48;18.13;;;10.30;;
26774;SDS011;14362;51.902;7.626;2024-01-06T03:45:51;16.13;;;9.68;;
26774;SDS011;14362;51.902;7.626;2024-01-06T03:49:52;20.08;;;10.45;;
26774;SDS011;14362;51.902;7.626;2024-01-06T03:53:53;16.67;;;9.88;;
26774;SDS011;14362;51.902;7.626;2024-01-06T03:57:55;19.23;;;10.15;;
26774;SDS011;14362;51.902;7.626;2024-01-06T04:01:58;17.73;;;9.20;;
26774;SDS011;14362;51.902;7.626;2024-01-06T04:05:59;18.85;;;9.45;;
26774;SDS011;14362;51.902;7.626;2024-01-06T04:10:00;17.08;;;9.80;;
26774;SDS011;14362;51.902;7.626;2024-01-06T04:14:02;18.83;;;9.80;;
26774;SDS011;14362;51.902;7.626;2024-01-06T04:18:05;15.48;;;8.73;;
26774;SDS011;14362;51.902;7.626;2024-01-06T04:22:06;14.20;;;8.43;;
26774;SDS011;14362;51.902;7.626;2024-01-06T04:26:08;17.92;;;8.40;;
26774;SDS011;14362;51.902;7.626;2024-01-06T04:30:10;18.75;;;9.70;;
26774;SDS011;14362;51.902;7.626;2024-01-06T04:34:13;19.25;;;9.60;;
26774;SDS011;14362;51.902;7.626;2024-01-06T04:38:15;16.27;;;9.05;;
26774;SDS011;14362;51.902;7.626;2024-01-06T04:42:16;13.63;;;8.27;;
26774;SDS011;14362;51.902;7.626;2024-01-06T04:46:19;15.80;;;8.70;;
26774;SDS011;14362;51.902;7.626;2024-01-06T04:50:22;16.25;;;9.15;;
26774;SDS011;14362;51.902;7.626;2024-01-06T04:54:23;15.77;;;9.18;;
26774;SDS011;14362;51.902;7.626;2024-01-06T04:58:25;16.58;;;9.40;;
26774;SDS011;14362;51.902;7.626;2024-01-06T05:02:26;18.55;;;10.20;;
26774;SDS011;14362;51.902;7.626;2024-01-06T05:06:29;17.05;;;9.25;;
26774;SDS011;14362;51.902;7.626;2024-01-06T05:10:31;13.60;;;7.20;;
26774;SDS011;14362;51.902;7.626;2024-01-06T05:14:32;17.27;;;6.10;;
26774;SDS011;14362;51.902;7.626;2024-01-06T05:18:34;9.27;;;5.30;;
26774;SDS011;14362;51.902;7.626;2024-01-06T05:22:36;8.50;;;4.70;;
26774;SDS011;14362;51.902;7.626;2024-01-06T05:26:38;8.90;;;4.32;;
26774;SDS011;14362;51.902;7.626;2024-01-06T05:30:40;10.50;;;5.45;;
26774;SDS011;14362;51.902;7.626;2024-01-06T05:34:41;9.80;;;4.78;;
26774;SDS011;14362;51.902;7.626;2024-01-06T05:38:44;8.15;;;4.55;;
26774;SDS011;14362;51.902;7.626;2024-01-06T05:42:45;8.82;;;4.10;;
26774;SDS011;14362;51.902;7.626;2024-01-06T05:46:47;11.88;;;5.60;;
26774;SDS011;14362;51.902;7.626;2024-01-06T05:50:48;11.63;;;5.82;;
26774;SDS011;14362;51.902;7.626;2024-01-06T05:54:51;10.30;;;5.88;;
26774;SDS011;14362;51.902;7.626;2024-01-06T05:58:53;12.88;;;7.00;;
26774;SDS011;14362;51.902;7.626;2024-01-06T06:02:54;13.90;;;6.75;;
26774;SDS011;14362;51.902;7.626;2024-01-06T06:06:56;17.65;;;7.25;;
26774;SDS011;14362;51.902;7.626;2024-01-06T06:10:58;16.77;;;8.68;;
26774;SDS011;14362;51.902;7.626;2024-01-06T06:15:10;19.15;;;8.57;;
26774;SDS011;14362;51.902;7.626;2024-01-06T06:19:12;21.40;;;9.70;;
26774;SDS011;14362;51.902;7.626;2024-01-06T06:23:13;16.58;;;8.32;;
26774;SDS011;14362;51.902;7.626;2024-01-06T06:27:16;21.35;;;9.82;;
26774;SDS011;14362;51.902;7.626;2024-01-06T06:31:17;21.38;;;9.75;;
26774;SDS011;14362;51.902;7.626;2024-01-06T06:35:19;18.73;;;8.45;;
26774;SDS011;14362;51.902;7.626;2024-01-06T06:39:20;19.92;;;8.63;;
26774;SDS011;14362;51.902;7.626;2024-01-06T06:43:23;17.35;;;8.32;;
26774;SDS011;14362;51.902;7.626;2024-01-06T06:47:24;20.35;;;9.27;;
26774;SDS011;14362;51.902;7.626;2024-01-06T06:51:25;23.50;;;8.95;;
26774;SDS011;14362;51.902;7.626;2024-01-06T06:55:27;21.73;;;9.48;;
26774;SDS011;14362;51.902;7.626;2024-01-06T06:59:30;19.80;;;9.20;;
26774;SDS011;14362;51.902;7.626;2024-01-06T07:03:31;18.17;;;8.57;;
26774;SDS011;14362;51.902;7.626;2024-01-06T07:07:32;14.85;;;7.68;;
26774;SDS011;14362;51.902;7.626;2024-01-06T07:11:34;20.23;;;8.25;;
26774;SDS011;14362;51.902;7.626;2024-01-06T07:15:37;19.80;;;9.07;;
26774;SDS011;14362;51.902;7.626;2024-01-06T07:19:38;17.58;;;8.75;;
26774;SDS011;14362;51.902;7.626;2024-01-06T07:23:40;18.13;;;8.38;;
26774;SDS011;14362;51.902;7.626;2024-01-06T07:27:42;23.73;;;9.50;;
26774;SDS011;14362;51.902;7.626;2024-01-06T07:31:45;20.30;;;8.98;;
26774;SDS011;14362;51.902;7.626;2024-01-06T07:35:47;16.73;;;8.90;;
26774;SDS011;14362;51.902;7.626;2024-01-06T07:39:48;17.70;;;7.68;;
26774;SDS011;14362;51.902;7.626;2024-01-06T07:43:50;19.80;;;9.85;;
26774;SDS011;14362;51.902;7.626;2024-01-06T07:47:53;18.90;;;9.25;;
26774;SDS011;14362;51.902;7.626;2024-01-06T07:51:54;20.65;;;9.63;;
26774;SDS011;14362;51.902;7.626;2024-01-06T07:55:56;21.13;;;10.48;;
26774;SDS011;14362;51.902;7.626;2024-01-06T07:59:57;23.25;;;10.07;;
26774;SDS011;14362;51.902;7.626;2024-01-06T08:04:00;22.40;;;10.50;;
26774;SDS011;14362;51.902;7.626;2024-01-06T08:08:01;24.77;;;12.15;;
26774;SDS011;14362;51.902;7.626;2024-01-06T08:12:04;23.90;;;10.50;;
26774;SDS011;14362;51.902;7.626;2024-01-06T08:16:06;22.10;;;10.30;;
26774;SDS011;14362;51.902;7.626;2024-01-06T08:20:09;19.60;;;8.77;;
26774;SDS011;14362;51.902;7.626;2024-01-06T08:24:11;25.83;;;11.00;;
26774;SDS011;14362;51.902;7.626;2024-01-06T08:28:14;22.48;;;10.55;;
26774;SDS011;14362;51.902;7.626;2024-01-06T08:32:16;21.77;;;9.60;;
26774;SDS011;14362;51.902;7.626;2024-01-06T08:36:18;22.25;;;10.23;;
26774;SDS011;14362;51.902;7.626;2024-01-06T08:40:20;23.17;;;10.45;;
26774;SDS011;14362;51.902;7.626;2024-01-06T08:44:22;23.45;;;9.82;;
26774;SDS011;14362;51.902;7.626;2024-01-06T08:48:23;22.92;;;10.60;;
26774;SDS011;14362;51.902;7.626;2024-01-06T08:52:26;20.65;;;9.75;;
26774;SDS011;14362;51.902;7.626;2024-01-06T08:56:27;18.92;;;8.93;;
26774;SDS011;14362;51.902;7.626;2024-01-06T09:00:29;19.67;;;9.52;;
26774;SDS011;14362;51.902;7.626;2024-01-06T09:04:30;21.02;;;9.82;;
26774;SDS011;14362;51.902;7.626;2024-01-06T09:08:33;21.25;;;10.68;;
26774;SDS011;14362;51.902;7.626;2024-01-06T09:12:34;23.38;;;10.95;;
26774;SDS011;14362;51.902;7.626;2024-01-06T09:16:36;25.13;;;11.38;;
26774;SDS011;14362;51.902;7.626;2024-01-06T09:20:37;27.63;;;13.10;;
26774;SDS011;14362;51.902;7.626;2024-01-06T09:24:40;29.27;;;12.80;;
26774;SDS011;14362;51.902;7.626;2024-01-06T09:28:41;23.73;;;12.30;;
26774;SDS011;14362;51.902;7.626;2024-01-06T09:32:43;27.70;;;13.40;;
26774;SDS011;14362;51.902;7.626;2024-01-06T09:36:44;26.27;;;12.05;;
26774;SDS011;14362;51.902;7.626;2024-01-06T09:40:47;23.05;;;11.52;;
26774;SDS011;14362;51.902;7.626;2024-01-06T09:44:50;20.80;;;10.18;;
26774;SDS011;14362;51.902;7.626;2024-01-06T09:48:52;19.15;;;9.93;;
26774;SDS011;14362;51.902;7.626;2024-01-06T09:52:54;17.55;;;8.73;;
26774;SDS011;14362;51.902;7.626;2024-01-06T09:57:06;16.77;;;8.02;;
26774;SDS011;14362;51.902;7.626;2024-01-06T10:01:08;13.55;;;7.40;;
26774;SDS011;14362;51.902;7.626;2024-01-06T10:05:10;12.85;;;6.50;;
26774;SDS011;14362;51.902;7.626;2024-01-06T10:09:13;15.25;;;8.20;;
26774;SDS011;14362;51.902;7.626;2024-01-06T10:13:17;14.57;;;8.05;;
26774;SDS011;14362;51.902;7.626;2024-01-06T10:17:19;13.93;;;7.47;;
26774;SDS011;14362;51.902;7.626;2024-01-06T10:21:20;16.90;;;8.05;;
26774;SDS011;14362;51.902;7.626;2024-01-06T10:25:22;19.35;;;9.68;;
26774;SDS011;14362;51.902;7.626;2024-01-06T10:29:26;23.85;;;10.13;;
26774;SDS011;14362;51.902;7.626;2024-01-06T10:33:27;21.23;;;10.43;;
26774;SDS011;14362;51.902;7.626;2024-01-06T10:37:29;20.55;;;10.40;;
26774;SDS011;14362;51.902;7.626;2024-01-06T10:41:31;19.90;;;11.25;;
26774;SDS011;14362;51.902;7.626;2024-01-06T10:45:34;18.70;;;9.35;;
26774;SDS011;14362;51.902;7.626;2024-01-06T10:49:36;17.38;;;9.40;;
26774;SDS011;14362;51.902;7.626;2024-01-06T10:53:38;18.42;;;10.20;;
26774;SDS011;14362;51.902;7.626;2024-01-06T10:57:41;14.60;;;8.65;;
26774;SDS011;14362;51.902;7.626;2024-01-06T11:01:45;17.20;;;8.80;;
26774;SDS011;14362;51.902;7.626;2024-01-06T11:05:48;14.65;;;7.88;;
26774;SDS011;14362;51.902;7.626;2024-01-06T11:09:50;16.27;;;7.82;;
26774;SDS011;14362;51.902;7.626;2024-01-06T11:18:33;18.83;;;7.65;;
26774;SDS011;14362;51.902;7.626;2024-01-06T11:22:35;11.98;;;6.47;;
26774;SDS011;14362;51.902;7.626;2024-01-06T11:26:39;10.90;;;5.78;;
26774;SDS011;14362;51.902;7.626;2024-01-06T11:30:43;10.38;;;5.93;;
26774;SDS011;14362;51.902;7.626;2024-01-06T11:34:48;12.45;;;6.25;;
26774;SDS011;14362;51.902;7.626;2024-01-06T11:38:50;9.95;;;5.63;;
26774;SDS011;14362;51.902;7.626;2024-01-06T11:42:59;9.27;;;5.47;;
26774;SDS011;14362;51.902;7.626;2024-01-06T11:47:03;12.25;;;6.60;;
26774;SDS011;14362;51.902;7.626;2024-01-06T11:51:07;10.98;;;5.78;;
26774;SDS011;14362;51.902;7.626;2024-01-06T11:55:08;11.45;;;5.88;;
26774;SDS011;14362;51.902;7.626;2024-01-06T11:59:11;11.80;;;5.97;;
26774;SDS011;14362;51.902;7.626;2024-01-06T12:03:15;15.13;;;6.93;;
26774;SDS011;14362;51.902;7.626;2024-01-06T12:07:19;12.38;;;6.53;;
26774;SDS011;14362;51.902;7.626;2024-01-06T12:11:22;15.27;;;7.03;;
26774;SDS011;14362;51.902;7.626;2024-01-06T12:15:23;13.63;;;7.40;;
26774;SDS011;14362;51.902;7.626;2024-01-06T12:19:25;12.85;;;6.68;;
26774;SDS011;14362;51.902;7.626;2024-01-06T12:23:28;12.98;;;6.38;;
26774;SDS011;14362;51.902;7.626;2024-01-06T12:27:29;13.70;;;6.65;;
26774;SDS011;14362;51.902;7.626;2024-01-06T12:31:31;16.10;;;6.95;;
26774;SDS011;14362;51.902;7.626;2024-01-06T12:35:34;12.50;;;6.72;;
26774;SDS011;14362;51.902;7.626;2024-01-06T12:39:37;15.48;;;8.13;;
26774;SDS011;14362;51.902;7.626;2024-01-06T12:43:38;14.10;;;7.43;;
26774;SDS011;14362;51.902;7.626;2024-01-06T12:47:39;14.05;;;6.95;;
26774;SDS011;14362;51.902;7.626;2024-01-06T12:51:42;14.68;;;7.50;;
26774;SDS011;14362;51.902;7.626;2024-01-06T12:55:45;14.40;;;7.90;;
26774;SDS011;14362;51.902;7.626;2024-01-06T12:59:47;14.27;;;7.25;;
26774;SDS011;14362;51.902;7.626;2024-01-06T13:03:49;12.00;;;6.70;;
26774;SDS011;14362;51.902;7.626;2024-01-06T13:07:51;13.88;;;7.80;;
26774;SDS011;14362;51.902;7.626;2024-01-06T13:11:54;17.55;;;7.80;;
26774;SDS011;14362;51.902;7.626;2024-01-06T13:16:00;13.93;;;7.63;;
26774;SDS011;14362;51.902;7.626;2024-01-06T13:20:03;15.45;;;7.53;;
26774;SDS011;14362;51.902;7.626;2024-01-06T13:24:06;18.25;;;8.48;;
26774;SDS011;14362;51.902;7.626;2024-01-06T13:28:09;16.85;;;8.80;;
26774;SDS011;14362;51.902;7.626;2024-01-06T13:32:10;14.88;;;8.45;;
26774;SDS011;14362;51.902;7.626;2024-01-06T13:36:13;15.23;;;8.13;;
26774;SDS011;14362;51.902;7.626;2024-01-06T13:40:17;16.77;;;8.90;;
26774;SDS011;14362;51.902;7.626;2024-01-06T13:44:21;17.00;;;8.40;;
26774;SDS011;14362;51.902;7.626;2024-01-06T13:48:23;19.13;;;9.25;;
26774;SDS011;14362;51.902;7.626;2024-01-06T13:52:24;14.50;;;7.75;;
26774;SDS011;14362;51.902;7.626;2024-01-06T13:56:25;15.13;;;8.13;;
26774;SDS011;14362;51.902;7.626;2024-01-06T14:00:29;14.35;;;8.15;;
26774;SDS011;14362;51.902;7.626;2024-01-06T14:04:30;17.02;;;8.52;;
26774;SDS011;14362;51.902;7.626;2024-01-06T14:08:31;14.57;;;7.85;;
26774;SDS011;14362;51.902;7.626;2024-01-06T14:12:33;14.68;;;7.78;;
26774;SDS011;14362;51.902;7.626;2024-01-06T14:16:35;16.90;;;7.55;;
26774;SDS011;14362;51.902;7.626;2024-01-06T14:20:37;15.40;;;8.15;;
26774;SDS011;14362;51.902;7.626;2024-01-06T14:24:40;13.98;;;7.22;;
26774;SDS011;14362;51.902;7.626;2024-01-06T14:28:42;13.55;;;8.02;;
26774;SDS011;14362;51.902;7.626;2024-01-06T14:32:44;15.63;;;8.45;;
26774;SDS011;14362;51.902;7.626;2024-01-06T14:36:46;13.95;;;7.20;;
26774;SDS011;14362;51.902;7.626;2024-01-06T14:40:48;15.95;;;8.13;;
26774;SDS011;14362;51.902;7.626;2024-01-06T14:44:49;14.20;;;8.20;;
26774;SDS011;14362;51.902;7.626;2024-01-06T14:48:52;15.85;;;7.50;;
26774;SDS011;14362;51.902;7.626;2024-01-06T14:52:55;17.90;;;8.32;;
26774;SDS011;14362;51.902;7.626;2024-01-06T14:56:56;16.30;;;9.38;;
26774;SDS011;14362;51.902;7.626;2024-01-06T15:00:58;19.50;;;8.95;;
26774;SDS011;14362;51.902;7.626;2024-01-06T15:05:01;20.42;;;9.43;;
26774;SDS011;14362;51.902;7.626;2024-01-06T15:09:04;20.07;;;10.60;;
26774;SDS011;14362;51.902;7.626;2024-01-06T15:13:05;21.55;;;11.63;;
26774;SDS011;14362;51.902;7.626;2024-01-06T15:17:07;18.95;;;10.02;;
26774;SDS011;14362;51.902;7.626;2024-01-06T15:21:09;21.27;;;11.05;;
26774;SDS011;14362;51.902;7.626;2024-01-06T15:25:12;29.63;;;11.77;;
26774;SDS011;14362;51.902;7.626;2024-01-06T15:29:13;25.08;;;12.75;;
26774;SDS011;14362;51.902;7.626;2024-01-06T15:33:15;27.30;;;13.52;;
26774;SDS011;14362;51.902;7.626;2024-01-06T15:37:18;30.42;;;14.02;;
26774;SDS011;14362;51.902;7.626;2024-01-06T15:41:20;24.45;;;12.85;;
26774;SDS011;14362;51.902;7.626;2024-01-06T15:45:21;26.52;;;12.90;;
26774;SDS011;14362;51.902;7.626;2024-01-06T15:49:22;31.63;;;14.25;;
26774;SDS011;14362;51.902;7.626;2024-01-06T15:53:25;34.97;;;15.18;;
26774;SDS011;14362;51.902;7.626;2024-01-06T15:57:26;37.33;;;15.95;;
26774;SDS011;14362;51.902;7.626;2024-01-06T16:01:30;31.20;;;14.75;;
26774;SDS011;14362;51.902;7.626;2024-01-06T16:05:32;33.90;;;14.93;;
26774;SDS011;14362;51.902;7.626;2024-01-06T16:09:36;29.20;;;13.60;;
26774;SDS011;14362;51.902;7.626;2024-01-06T16:13:37;28.23;;;11.63;;
26774;SDS011;14362;51.902;7.626;2024-01-06T16:17:39;30.27;;;14.00;;
26774;SDS011;14362;51.902;7.626;2024-01-06T16:21:40;29.17;;;13.55;;
26774;SDS011;14362;51.902;7.626;2024-01-06T16:25:43;23.90;;;11.63;;
26774;SDS011;14362;51.902;7.626;2024-01-06T16:29:45;21.70;;;11.10;;
26774;SDS011;14362;51.902;7.626;2024-01-06T16:33:47;16.85;;;9.27;;
26774;SDS011;14362;51.902;7.626;2024-01-06T16:37:48;19.25;;;11.23;;
26774;SDS011;14362;51.902;7.626;2024-01-06T16:41:52;19.63;;;10.38;;
26774;SDS011;14362;51.902;7.626;2024-01-06T16:45:57;21.50;;;10.90;;
26774;SDS011;14362;51.902;7.626;2024-01-06T16:49:58;20.30;;;10.40;;
26774;SDS011;14362;51.902;7.626;2024-01-06T16:54:00;16.55;;;8.82;;
26774;SDS011;14362;51.902;7.626;2024-01-06T16:58:03;16.08;;;7.72;;
26774;SDS011;14362;51.902;7.626;2024-01-06T17:02:04;12.55;;;7.13;;
26774;SDS011;14362;51.902;7.626;2024-01-06T17:06:06;11.88;;;6.15;;
26774;SDS011;14362;51.902;7.626;2024-01-06T17:10:10;13.60;;;7.18;;
26774;SDS011;14362;51.902;7.626;2024-01-06T17:14:13;11.73;;;6.85;;
26774;SDS011;14362;51.902;7.626;2024-01-06T17:18:15;12.75;;;6.70;;
26774;SDS011;14362;51.902;7.626;2024-01-06T17:22:16;14.80;;;7.88;;
26774;SDS011;14362;51.902;7.626;2024-01-06T17:26:18;12.07;;;7.60;;
26774;SDS011;14362;51.902;7.626;2024-01-06T17:30:21;12.02;;;6.90;;
26774;SDS011;14362;51.902;7.626;2024-01-06T17:34:22;9.27;;;5.97;;
26774;SDS011;14362;51.902;7.626;2024-01-06T17:38:23;11.60;;;6.47;;
26774;SDS011;14362;51.902;7.626;2024-01-06T17:42:25;10.15;;;5.85;;
26774;SDS011;14362;51.902;7.626;2024-01-06T17:46:28;9.63;;;5.70;;
26774;SDS011;14362;51.902;7.626;2024-01-06T17:50:29;10.73;;;6.28;;
26774;SDS011;14362;51.902;7.626;2024-01-06T17:54:31;14.57;;;8.73;;
26774;SDS011;14362;51.902;7.626;2024-01-06T17:58:32;15.20;;;8.02;;
26774;SDS011;14362;51.902;7.626;2024-01-06T18:02:35;18.75;;;11.40;;
26774;SDS011;14362;51.902;7.626;2024-01-06T18:06:36;14.65;;;8.02;;
26774;SDS011;14362;51.902;7.626;2024-01-06T18:10:37;27.33;;;13.13;;
26774;SDS011;14362;51.902;7.626;2024-01-06T18:14:39;15.88;;;9.15;;
26774;SDS011;14362;51.902;7.626;2024-01-06T18:18:42;19.20;;;11.23;;
26774;SDS011;14362;51.902;7.626;2024-01-06T18:22:43;15.07;;;8.30;;
26774;SDS011;14362;51.902;7.626;2024-01-06T18:26:44;13.82;;;8.38;;
26774;SDS011;14362;51.902;7.626;2024-01-06T18:30:46;12.63;;;7.65;;
26774;SDS011;14362;51.902;7.626;2024-01-06T18:34:48;13.00;;;7.53;;
26774;SDS011;14362;51.902;7.626;2024-01-06T18:38:50;15.93;;;8.07;;
26774;SDS011;14362;51.902;7.626;2024-01-06T18:42:52;15.23;;;9.68;;
26774;SDS011;14362;51.902;7.626;2024-01-06T18:46:53;13.15;;;7.75;;
26774;SDS011;14362;51.902;7.626;2024-01-06T18:50:56;12.50;;;7.85;;
26774;SDS011;14362;51.902;7.626;2024-01-06T18:54:57;17.65;;;8.55;;
26774;SDS011;14362;51.902;7.626;2024-01-06T18:58:59;14.75;;;9.45;;
26774;SDS011;14362;51.902;7.626;2024-01-06T19:03:01;15.15;;;8.77;;
26774;SDS011;14362;51.902;7.626;2024-01-06T19:07:04;16.00;;;9.77;;
26774;SDS011;14362;51.902;7.626;2024-01-06T19:11:05;16.98;;;9.57;;
26774;SDS011;14362;51.902;7.626;2024-01-06T19:15:06;15.25;;;9.52;;
26774;SDS011;14362;51.902;7.626;2024-01-06T19:19:08;21.98;;;10.68;;
26774;SDS011;14362;51.902;7.626;2024-01-06T19:23:11;17.75;;;9.80;;
26774;SDS011;14362;51.902;7.626;2024-01-06T19:27:13;15.02;;;9.77;;
26774;SDS011;14362;51.902;7.626;2024-01-06T19:31:14;17.52;;;10.82;;
26774;SDS011;14362;51.902;7.626;2024-01-06T19:35:16;12.85;;;8.10;;
26774;SDS011;14362;51.902;7.626;2024-01-06T19:39:18;15.18;;;9.05;;
26774;SDS011;14362;51.902;7.626;2024-01-06T19:43:20;17.48;;;8.98;;
26774;SDS011;14362;51.902;7.626;2024-01-06T19:47:22;16.85;;;8.65;;
26774;SDS011;14362;51.902;7.626;2024-01-06T19:51:24;13.68;;;8.07;;
26774;SDS011;14362;51.902;7.626;2024-01-06T19:55:28;16.63;;;8.90;;
26774;SDS011;14362;51.902;7.626;2024-01-06T19:59:29;15.57;;;8.63;;
26774;SDS011;14362;51.902;7.626;2024-01-06T20:03:31;16.90;;;9.07;;
26774;SDS011;14362;51.902;7.626;2024-01-06T20:07:32;14.93;;;8.90;;
26774;SDS011;14362;51.902;7.626;2024-01-06T20:11:35;15.05;;;9.05;;
26774;SDS011;14362;51.902;7.626;2024-01-06T20:15:36;14.65;;;9.00;;
26774;SDS011;14362;51.902;7.626;2024-01-06T20:19:38;17.38;;;9.80;;
26774;SDS011;14362;51.902;7.626;2024-01-06T20:23:40;18.92;;;10.32;;
26774;SDS011;14362;51.902;7.626;2024-01-06T20:27:44;16.92;;;10.40;;
26774;SDS011;14362;51.902;7.626;2024-01-06T20:31:46;17.90;;;9.93;;
26774;SDS011;14362;51.902;7.626;2024-01-06T20:35:47;19.45;;;10.70;;
26774;SDS011;14362;51.902;7.626;2024-01-06T20:39:49;17.02;;;9.70;;
26774;SDS011;14362;51.902;7.626;2024-01-06T20:43:52;17.73;;;10.73;;
26774;SDS011;14362;51.902;7.626;2024-01-06T20:47:53;20.25;;;11.40;;
26774;SDS011;14362;51.902;7.626;2024-01-06T20:51:54;31.02;;;18.65;;
26774;SDS011;14362;51.902;7.626;2024-01-06T20:55:56;19.73;;;11.25;;
26774;SDS011;14362;51.902;7.626;2024-01-06T20:59:59;16.27;;;10.30;;
26774;SDS011;14362;51.902;7.626;2024-01-06T21:04:01;22.15;;;11.35;;
26774;SDS011;14362;51.902;7.626;2024-01-06T21:08:02;16.48;;;9.60;;
26774;SDS011;14362;51.902;7.626;2024-01-06T21:12:04;19.27;;;11.88;;
26774;SDS011;14362;51.902;7.626;2024-01-06T21:16:07;17.83;;;10.18;;
26774;SDS011;14362;51.902;7.626;2024-01-06T21:20:09;19.20;;;10.48;;
26774;SDS011;14362;51.902;7.626;2024-01-06T21:24:11;16.08;;;9.57;;
26774;SDS011;14362;51.902;7.626;2024-01-06T21:28:12;18.08;;;10.60;;
26774;SDS011;14362;51.902;7.626;2024-01-06T21:32:15;17.52;;;10.23;;
26774;SDS011;14362;51.902;7.626;2024-01-06T21:36:17;17.77;;;10.55;;
26774;SDS011;14362;51.902;7.626;2024-01-06T21:40:18;17.77;;;10.30;;
26774;SDS011;14362;51.902;7.626;2024-01-06T21:44:20;17.45;;;10.13;;
26774;SDS011;14362;51.902;7.626;2024-01-06T21:48:24;18.95;;;11.60;;
26774;SDS011;14362;51.902;7.626;2024-01-06T21:52:25;19.55;;;10.68;;
26774;SDS011;14362;51.902;7.626;2024-01-06T21:56:27;22.05;;;12.05;;
26774;SDS011;14362;51.902;7.626;2024-01-06T22:00:28;20.95;;;11.60;;
26774;SDS011;14362;51.902;7.626;2024-01-06T22:04:31;23.02;;;12.05;;
26774;SDS011;14362;51.902;7.626;2024-01-06T22:08:32;23.35;;;13.00;;
26774;SDS011;14362;51.902;7.626;2024-01-06T22:12:34;20.35;;;11.25;;
26774;SDS011;14362;51.902;7.626;2024-01-06T22:16:36;22.00;;;11.35;;
26774;SDS011;14362;51.902;7.626;2024-01-06T22:20:39;20.70;;;10.63;;
26774;SDS011;14362;51.902;7.626;2024-01-06T22:24:40;18.92;;;11.25;;
26774;SDS011;14362;51.902;7.626;2024-01-06T22:28:42;20.23;;;11.23;;
26774;SDS011;14362;51.902;7.626;2024-01-06T22:32:44;17.88;;;10.63;;
26774;SDS011;14362;51.902;7.626;2024-01-06T22:36:49;19.67;;;10.95;;
26774;SDS011;14362;51.902;7.626;2024-01-06T22:40:50;18.23;;;10.25;;
26774;SDS011;14362;51.902;7.626;2024-01-06T22:44:51;21.13;;;11.07;;
26774;SDS011;14362;51.902;7.626;2024-01-06T22:48:53;19.10;;;10.63;;
26774;SDS011;14362;51.902;7.626;2024-01-06T22:52:56;19.13;;;11.30;;
26774;SDS011;14362;51.902;7.626;2024-01-06T22:56:57;23.25;;;11.20;;
26774;SDS011;14362;51.902;7.626;2024-01-06T23:00:58;21.00;;;11.40;;
26774;SDS011;14362;51.902;7.626;2024-01-06T23:05:00;22.25;;;11.52;;
26774;SDS011;14362;51.902;7.626;2024-01-06T23:09:03;22.15;;;12.68;;
26774;SDS011;14362;51.902;7.626;2024-01-06T23:17:08;22.63;;;11.48;;
26774;SDS011;14362;51.902;7.626;2024-01-06T23:21:09;27.77;;;13.02;;
26774;SDS011;14362;51.902;7.626;2024-01-06T23:25:12;20.02;;;11.75;;
26774;SDS011;14362;51.902;7.626;2024-01-06T23:29:14;20.70;;;12.02;;
26774;SDS011;14362;51.902;7.626;2024-01-06T23:33:16;24.80;;;12.23;;
26774;SDS011;14362;51.902;7.626;2024-01-06T23:37:18;23.50;;;12.20;;
26774;SDS011;14362;51.902;7.626;2024-01-06T23:41:20;25.15;;;13.68;;
26774;SDS011;14362;51.902;7.626;2024-01-06T23:45:22;23.88;;;13.40;;
26774;SDS011;14362;51.902;7.626;2024-01-06T23:49:25;26.40;;;12.85;;
26774;SDS011;14362;51.902;7.626;2024-01-06T23:53:27;27.63;;;13.80;;
26774;SDS011;14362;51.902;7.626;2024-01-06T23:57:29;31.13;;;16.95;;
